»·PEaware :: N871EU KSNA-KAVX

N871EU :: KSNA-KAVX

FLIGHT INFORMATION

Flight Status: Arrived
Operator: Privately registered:
United States
More flights under this callsign
Pilot: Arnold Y. (19526)
Aircraft: BEECH AIRCRAFT SUPER KING AIR 350
(B350)
More flights by this aircraft type
Origin: KSNA John Wayne-Orange Co
United States
Destination: KAVX Catalina
United States
More flights between these airports :: More routes between these airports
Route: SLI V21 SXC
File this flight plan on PilotEdge
Remarks:
Altitude:
(Current/Filed)
4,000ft
Speed:
(Current/Filed)
300kts
Departed: 09-Jan-20 06:33 PM
Arrived: 09-Jan-20 06:53 PM
Distance/Time
Traveled:
32nm/0:20
Distance/Time
To Go:
Arrived

Flight Plot

Page will automatically refresh every two minutes.


Map Options




Map Legend


Flown Route
Filed Route
Departure Airport
Arrival Airport
Navaid (VOR, NDB)
Fix

Horizontal Profiles

Position Reports

Time Latitude Longitude Heading Altitude Ground
Speed
09-Jan-20 18:13 33.666869 -117.871981 308 61ft 0kts
09-Jan-20 18:14 33.666869 -117.871981 308 61ft 0kts
09-Jan-20 18:15 33.666869 -117.871981 308 61ft 0kts
09-Jan-20 18:16 33.666869 -117.871981 308 61ft 0kts
09-Jan-20 18:17 33.666869 -117.871981 308 61ft 0kts
09-Jan-20 18:18 33.666869 -117.871981 308 61ft 0kts
09-Jan-20 18:19 33.666869 -117.871981 308 61ft 0kts
09-Jan-20 18:20 33.666869 -117.871981 308 61ft 0kts
09-Jan-20 18:21 33.666869 -117.871981 308 61ft 0kts
09-Jan-20 18:22 33.666869 -117.871981 308 61ft 0kts
09-Jan-20 18:23 33.666869 -117.871981 308 61ft 0kts
09-Jan-20 18:24 33.666869 -117.871981 308 61ft 0kts
09-Jan-20 18:25 33.668628 -117.871435 40 61ft 10kts
09-Jan-20 18:26 33.672030 -117.868179 26 61ft 17kts
09-Jan-20 18:27 33.675840 -117.865385 27 61ft 16kts
09-Jan-20 18:28 33.679744 -117.862901 28 61ft 12kts
09-Jan-20 18:29 33.681173 -117.864255 297 61ft 0kts
09-Jan-20 18:31 33.681173 -117.864254 297 61ft 0kts
09-Jan-20 18:32 33.681401 -117.865225 208 61ft 3kts
09-Jan-20 18:33 33.649850 -117.879918 186 1621ft 150kts
09-Jan-20 18:34 33.607578 -117.888397 186 3968ft 165kts
09-Jan-20 18:35 33.564357 -117.930062 248 4017ft 252kts
09-Jan-20 18:36 33.537620 -118.007334 245 3994ft 245kts
09-Jan-20 18:37 33.508986 -118.080820 245 3986ft 240kts
09-Jan-20 18:38 33.481348 -118.151567 245 3986ft 228kts
09-Jan-20 18:39 33.454679 -118.219170 246 3990ft 222kts
09-Jan-20 18:40 33.428286 -118.285950 247 3990ft 220kts
09-Jan-20 18:41 33.401936 -118.352862 250 3987ft 221kts
09-Jan-20 18:42 33.426697 -118.409620 344 3988ft 218kts
09-Jan-20 18:43 33.488115 -118.403194 4 3464ft 226kts
09-Jan-20 18:44 33.541333 -118.421726 319 3381ft 195kts
09-Jan-20 18:45 33.586648 -118.453157 3 3380ft 196kts
09-Jan-20 18:46 33.604494 -118.400902 128 3379ft 206kts
09-Jan-20 18:47 33.553565 -118.393696 189 2935ft 213kts
09-Jan-20 18:48 33.492811 -118.402680 190 2283ft 218kts
09-Jan-20 18:49 33.433681 -118.411414 193 2204ft 186kts
09-Jan-20 18:49 33.406756 -118.432386 148 2394ft 144kts
09-Jan-20 18:50 33.427381 -118.399696 31 2462ft 127kts
09-Jan-20 18:52 33.416151 -118.395329 252 2150ft 120kts
09-Jan-20 18:53 33.404006 -118.417154 159 1571ft 6kts
09-Jan-20 18:53 33.403225 -118.415627 17 1571ft 2kts
09-Jan-20 18:55 33.403230 -118.415625 17 1571ft 0kts
09-Jan-20 18:55 33.403230 -118.415625 17 1571ft 0kts
09-Jan-20 18:56 33.403230 -118.415626 17 1571ft 0kts
09-Jan-20 18:58 33.403230 -118.415626 17 1571ft 0kts
09-Jan-20 18:58 33.403230 -118.415626 17 1571ft 0kts
09-Jan-20 18:59 33.403230 -118.415626 17 1571ft 0kts
09-Jan-20 19:00 33.403230 -118.415625 17 1571ft 0kts
09-Jan-20 19:01 33.403230 -118.415625 17 1571ft 0kts
09-Jan-20 19:02 33.403230 -118.415625 17 1571ft 0kts
09-Jan-20 19:03 33.403230 -118.415625 17 1571ft 0kts
09-Jan-20 19:04 33.403230 -118.415625 17 1571ft 0kts
09-Jan-20 19:05 33.403230 -118.415625 17 1571ft 0kts
09-Jan-20 19:06 33.403230 -118.415625 17 1571ft 0kts
09-Jan-20 19:07 33.403230 -118.415625 17 1571ft 0kts

Navigation Log

Ident Type
Flight plan parsing failed, navigation log unavailable